Time;durP1;ratioP1;P1;durP2;ratioP2;P2;SDS_P1;SDS_P2;PMS_P1;PMS_P2;Temp;Humidity;BMP_temperature;BMP_pressure;BME280_temperature;BME280_humidity;BME280_pressure;Samples;Min_cycle;Max_cycle;Signal;HPM_P1;HPM_P2
2022/04/03 00:02:18;;;;;;;4.93;4.57;;;-1.60;99.90;;;;;;4994078;28;20298;-69
2022/04/03 00:04:45;;;;;;;4.40;4.10;;;-1.60;99.90;;;;;;4993917;28;20198;-69
2022/04/03 00:07:13;;;;;;;4.68;4.43;;;-1.60;99.90;;;;;;4993650;28;20293;-68
2022/04/03 00:09:40;;;;;;;4.22;4.03;;;-1.50;99.90;;;;;;4993952;28;20282;-67
2022/04/03 00:12:08;;;;;;;4.57;4.28;;;-1.50;99.90;;;;;;4993799;28;20293;-68
2022/04/03 00:14:35;;;;;;;4.20;3.90;;;-1.50;99.90;;;;;;4993968;28;20222;-68
2022/04/03 00:17:01;;;;;;;4.25;3.95;;;-1.50;99.90;;;;;;4993834;28;20283;-68
2022/04/03 00:19:28;;;;;;;4.45;4.15;;;-1.50;99.90;;;;;;4993589;28;20318;-68
2022/04/03 00:21:55;;;;;;;3.70;3.50;;;-1.50;99.90;;;;;;4993832;28;20293;-69
2022/04/03 00:24:23;;;;;;;4.25;4.05;;;-1.50;99.90;;;;;;4993539;28;20206;-69
2022/04/03 00:26:50;;;;;;;4.07;3.85;;;-1.50;99.90;;;;;;4993858;28;20294;-69
2022/04/03 00:29:17;;;;;;;3.75;3.55;;;-1.50;99.90;;;;;;4993934;28;20317;-70
2022/04/03 00:31:44;;;;;;;3.72;3.53;;;-1.50;99.90;;;;;;4993856;28;20294;-68
2022/04/03 00:34:11;;;;;;;4.10;3.83;;;-1.50;99.90;;;;;;4993766;28;20309;-68
2022/04/03 00:36:37;;;;;;;3.63;3.42;;;-1.50;99.90;;;;;;4993886;28;20691;-67
2022/04/03 00:39:04;;;;;;;3.55;3.35;;;-1.50;99.90;;;;;;4993919;28;20218;-67
2022/04/03 00:41:32;;;;;;;4.18;3.90;;;-1.50;99.90;;;;;;4993841;28;20297;-67
2022/04/03 00:44:00;;;;;;;4.15;3.95;;;-1.50;99.90;;;;;;4993665;28;20203;-67
2022/04/03 00:46:29;;;;;;;4.10;3.88;;;-1.60;99.90;;;;;;4995689;28;20663;-69
2022/04/03 00:48:59;;;;;;;4.97;4.55;;;-1.60;99.90;;;;;;4997846;28;20353;-72
2022/04/03 00:51:26;;;;;;;4.97;4.68;;;-1.60;99.90;;;;;;4997767;28;20191;-71
2022/04/03 00:53:53;;;;;;;4.85;4.45;;;-1.60;99.90;;;;;;4997615;28;20317;-72
2022/04/03 00:56:20;;;;;;;4.90;4.50;;;-1.60;99.90;;;;;;4997950;28;20203;-72
2022/04/03 00:58:49;;;;;;;5.45;5.05;;;-1.60;99.90;;;;;;4997622;28;20231;-72
2022/04/03 01:01:17;;;;;;;5.28;4.88;;;-1.60;99.90;;;;;;4997084;28;20680;-71
2022/04/03 01:03:44;;;;;;;5.57;5.07;;;-1.60;99.90;;;;;;4997468;28;20199;-69
2022/04/03 01:06:11;;;;;;;4.78;4.47;;;-1.60;99.90;;;;;;4997460;28;20293;-68
2022/04/03 01:08:38;;;;;;;4.25;4.00;;;-1.60;99.90;;;;;;4997167;28;20225;-68
2022/04/03 01:11:05;;;;;;;4.50;4.20;;;-1.60;99.90;;;;;;4997127;28;20199;-68
2022/04/03 01:13:32;;;;;;;4.25;3.95;;;-1.70;99.90;;;;;;5001586;28;20209;-68
2022/04/03 01:16:00;;;;;;;3.90;3.70;;;-1.70;99.90;;;;;;5019216;28;20203;-68
2022/04/03 01:18:27;;;;;;;4.63;4.22;;;-1.70;99.90;;;;;;5001497;28;20218;-68
2022/04/03 01:20:54;;;;;;;4.13;3.92;;;-1.70;99.90;;;;;;4997064;28;20187;-68
2022/04/03 01:23:25;;;;;;;7.43;6.55;;;-1.70;99.90;;;;;;4996596;28;20211;-68
2022/04/03 01:25:53;;;;;;;8.48;7.45;;;-1.70;99.90;;;;;;4996485;28;20697;-69
2022/04/03 01:28:20;;;;;;;7.03;6.43;;;-1.70;99.90;;;;;;4997209;28;20235;-69
2022/04/03 01:30:47;;;;;;;7.03;6.32;;;-1.70;99.90;;;;;;4996732;28;20202;-69
2022/04/03 01:33:14;;;;;;;6.18;5.68;;;-1.70;99.90;;;;;;4996956;28;20281;-69
2022/04/03 01:35:40;;;;;;;6.35;5.75;;;-1.60;99.90;;;;;;4996538;28;20222;-69
2022/04/03 01:38:07;;;;;;;6.05;5.55;;;-1.60;99.90;;;;;;4996416;28;20229;-69
2022/04/03 01:40:35;;;;;;;5.15;4.75;;;-1.60;99.90;;;;;;4996552;28;20199;-69
2022/04/03 01:43:05;;;;;;;5.40;4.93;;;-1.60;99.90;;;;;;4996216;28;20695;-69
2022/04/03 01:45:33;;;;;;;5.30;4.90;;;-1.50;99.90;;;;;;4996554;28;20242;-69
2022/04/03 01:48:00;;;;;;;4.82;4.53;;;-1.60;99.90;;;;;;4996309;28;20229;-69
2022/04/03 01:50:27;;;;;;;5.60;5.15;;;-1.60;99.90;;;;;;4996279;28;20207;-69
2022/04/03 01:52:54;;;;;;;4.95;4.55;;;-1.60;99.90;;;;;;4996815;28;20289;-69
2022/04/03 01:55:23;;;;;;;5.15;4.75;;;-1.60;99.90;;;;;;4996201;28;20225;-69
2022/04/03 01:57:49;;;;;;;5.45;5.05;;;-1.70;99.90;;;;;;4995524;28;20222;-69
2022/04/03 02:00:18;;;;;;;5.22;4.82;;;-1.70;99.90;;;;;;4996204;28;20198;-69
2022/04/03 02:02:45;;;;;;;5.28;4.88;;;-1.70;99.90;;;;;;4996082;28;20293;-69
2022/04/03 02:05:12;;;;;;;5.85;5.35;;;-1.70;99.90;;;;;;4996142;28;20199;-68
2022/04/03 02:07:39;;;;;;;5.28;4.82;;;-1.70;99.90;;;;;;4995590;28;20223;-68
2022/04/03 02:10:09;;;;;;;4.35;3.97;;;-1.70;99.90;;;;;;4995712;28;20205;-69
2022/04/03 02:12:35;;;;;;;4.50;4.20;;;-1.70;99.90;;;;;;4995651;28;20302;-69
2022/04/03 02:15:05;;;;;;;4.90;4.60;;;-1.70;99.90;;;;;;4995598;28;20218;-69
2022/04/03 02:17:33;;;;;;;5.00;4.60;;;-1.70;99.90;;;;;;4997203;28;20633;-69
2022/04/03 02:20:00;;;;;;;4.65;4.35;;;-1.70;99.90;;;;;;4999484;28;20590;-69
2022/04/03 02:22:27;;;;;;;4.50;4.20;;;-1.70;99.90;;;;;;5000595;28;20700;-69
2022/04/03 02:24:54;;;;;;;4.57;4.28;;;-1.70;99.90;;;;;;4997580;28;20203;-69
2022/04/03 02:27:21;;;;;;;4.03;3.75;;;-1.70;99.90;;;;;;4995673;28;20199;-69
2022/04/03 02:29:47;;;;;;;3.47;3.30;;;-1.70;99.90;;;;;;4995737;28;20634;-69
2022/04/03 02:32:16;;;;;;;4.07;3.78;;;-1.70;99.90;;;;;;4995639;28;20245;-69
2022/04/03 02:34:44;;;;;;;3.90;3.70;;;-1.70;99.90;;;;;;4995531;28;20225;-69
2022/04/03 02:37:12;;;;;;;3.90;3.70;;;-1.70;99.90;;;;;;4995158;28;20757;-69
2022/04/03 02:39:39;;;;;;;3.60;3.40;;;-1.70;99.90;;;;;;4995131;28;20615;-69
2022/04/03 02:42:06;;;;;;;3.75;3.55;;;-1.70;99.90;;;;;;4995221;28;20700;-69
2022/04/03 02:44:34;;;;;;;4.10;3.90;;;-1.70;99.90;;;;;;4995005;28;20567;-69
2022/04/03 02:47:01;;;;;;;3.70;3.50;;;-1.70;99.90;;;;;;4995405;28;20206;-69
2022/04/03 02:49:29;;;;;;;3.67;3.47;;;-1.70;99.90;;;;;;4995397;28;20309;-67
2022/04/03 02:51:57;;;;;;;4.57;4.28;;;-1.70;99.90;;;;;;4995278;28;20199;-69
2022/04/03 02:54:24;;;;;;;4.68;4.38;;;-1.70;99.90;;;;;;4996312;28;20219;-69
2022/04/03 02:56:50;;;;;;;4.35;4.10;;;-1.70;99.90;;;;;;4995174;28;20290;-69
2022/04/03 02:59:17;;;;;;;4.10;3.90;;;-1.70;99.90;;;;;;4995016;28;20310;-69
2022/04/03 03:01:44;;;;;;;4.07;3.88;;;-1.70;99.90;;;;;;4995356;28;20209;-69
2022/04/03 03:04:11;;;;;;;3.55;3.35;;;-1.70;99.90;;;;;;4994682;28;20663;-69
2022/04/03 03:06:38;;;;;;;3.35;3.20;;;-1.70;99.90;;;;;;4994917;28;20205;-69
2022/04/03 03:09:06;;;;;;;3.70;3.50;;;-1.70;99.90;;;;;;4993909;28;20219;-69
2022/04/03 03:11:33;;;;;;;3.60;3.40;;;-1.60;99.90;;;;;;4994899;28;20294;-69
2022/04/03 03:14:00;;;;;;;3.08;2.97;;;-1.60;99.90;;;;;;4994486;28;20622;-69
2022/04/03 03:16:27;;;;;;;3.40;3.20;;;-1.60;99.90;;;;;;4994781;28;20211;-70
2022/04/03 03:18:54;;;;;;;3.22;3.03;;;-1.60;99.90;;;;;;4994422;28;20318;-69
2022/04/03 03:21:21;;;;;;;3.67;3.47;;;-1.60;99.90;;;;;;4994778;28;20279;-69
2022/04/03 03:23:48;;;;;;;4.47;4.18;;;-1.60;99.90;;;;;;4994827;28;20658;-69
2022/04/03 03:26:16;;;;;;;4.45;4.15;;;-1.60;99.90;;;;;;4994615;28;20323;-69
2022/04/03 03:28:43;;;;;;;4.60;4.30;;;-1.70;99.90;;;;;;4994250;28;20706;-69
2022/04/03 03:31:09;;;;;;;5.72;5.22;;;-1.70;99.90;;;;;;4994157;28;20298;-69
2022/04/03 03:33:36;;;;;;;4.22;4.00;;;-1.70;99.90;;;;;;4994987;28;20204;-68
2022/04/03 03:36:03;;;;;;;4.93;4.60;;;-1.70;99.90;;;;;;4994342;28;20316;-68
2022/04/03 03:38:30;;;;;;;4.82;4.55;;;-1.70;99.90;;;;;;4994344;28;20253;-68
2022/04/03 03:40:57;;;;;;;4.30;4.10;;;-1.70;99.90;;;;;;4994312;28;20202;-68
2022/04/03 03:43:25;;;;;;;4.20;3.90;;;-1.70;99.90;;;;;;4994429;28;20202;-68
2022/04/03 03:45:52;;;;;;;4.70;4.38;;;-1.70;99.90;;;;;;4993948;28;20293;-68
2022/04/03 03:48:19;;;;;;;4.10;3.90;;;-1.70;99.90;;;;;;4994198;28;20313;-68
2022/04/03 03:50:46;;;;;;;4.97;4.63;;;-1.70;99.90;;;;;;5001077;28;20203;-68
2022/04/03 03:53:13;;;;;;;5.65;5.15;;;-1.70;99.90;;;;;;5007920;28;20293;-69
2022/04/03 03:55:40;;;;;;;4.72;4.32;;;-1.70;99.90;;;;;;4994163;28;20219;-68
2022/04/03 03:58:07;;;;;;;5.03;4.63;;;-1.70;99.90;;;;;;4993734;28;20786;-68
2022/04/03 04:00:37;;;;;;;5.10;4.70;;;-1.70;99.90;;;;;;4993834;28;20748;-68
2022/04/03 04:03:04;;;;;;;5.03;4.72;;;-1.70;99.90;;;;;;4993807;28;20550;-68
2022/04/03 04:05:31;;;;;;;4.93;4.65;;;-1.70;99.90;;;;;;4993707;28;20228;-68
2022/04/03 04:07:58;;;;;;;4.82;4.53;;;-1.70;99.90;;;;;;4994024;28;20395;-68
2022/04/03 04:10:25;;;;;;;4.22;4.03;;;-1.70;99.90;;;;;;4993924;28;20306;-68
2022/04/03 04:12:52;;;;;;;6.60;5.85;;;-1.70;99.90;;;;;;4993689;28;20293;-68
2022/04/03 04:15:19;;;;;;;6.22;5.65;;;-1.70;99.90;;;;;;4993825;28;20309;-68
2022/04/03 04:17:48;;;;;;;6.60;6.00;;;-1.70;99.90;;;;;;4993892;28;20226;-68
2022/04/03 04:20:17;;;;;;;6.25;5.72;;;-1.70;99.90;;;;;;4993861;28;20333;-68
2022/04/03 04:22:45;;;;;;;5.82;5.25;;;-1.70;99.90;;;;;;4998067;28;20212;-68
2022/04/03 04:25:13;;;;;;;6.20;5.70;;;-1.60;99.90;;;;;;4997687;28;20631;-68
2022/04/03 04:27:40;;;;;;;6.25;5.65;;;-1.60;99.90;;;;;;4998570;28;20252;-68
2022/04/03 04:30:08;;;;;;;5.57;5.18;;;-1.60;99.90;;;;;;4997622;28;20686;-68
2022/04/03 04:32:35;;;;;;;5.03;4.63;;;-1.60;99.90;;;;;;4997865;28;20210;-68
2022/04/03 04:35:04;;;;;;;4.57;4.30;;;-1.60;99.90;;;;;;4997818;28;20218;-68
2022/04/03 04:37:32;;;;;;;4.38;4.07;;;-1.60;99.90;;;;;;4997513;28;20233;-68
2022/04/03 04:39:59;;;;;;;4.30;4.00;;;-1.50;99.90;;;;;;4997763;28;20237;-69
2022/04/03 04:42:26;;;;;;;4.43;4.13;;;-1.50;99.90;;;;;;4997712;28;20217;-68
2022/04/03 04:44:53;;;;;;;5.13;4.72;;;-1.50;99.90;;;;;;4997462;28;20234;-68
2022/04/03 04:47:19;;;;;;;5.43;5.03;;;-1.50;99.90;;;;;;4997568;28;20289;-68
2022/04/03 04:49:46;;;;;;;5.32;4.93;;;-1.60;99.90;;;;;;4997482;28;20229;-68
2022/04/03 04:52:14;;;;;;;5.25;4.85;;;-1.60;99.90;;;;;;4998370;28;20858;-68
2022/04/03 04:54:41;;;;;;;4.88;4.57;;;-1.60;99.90;;;;;;5000720;28;20203;-69
2022/04/03 04:57:08;;;;;;;4.70;4.40;;;-1.60;99.90;;;;;;5000678;28;20293;-68
2022/04/03 04:59:35;;;;;;;5.10;4.78;;;-1.60;99.90;;;;;;4998015;28;20762;-68
2022/04/03 05:02:05;;;;;;;5.07;4.68;;;-1.60;99.90;;;;;;4998989;28;20205;-68
2022/04/03 05:04:32;;;;;;;4.60;4.30;;;-1.60;99.90;;;;;;4997721;28;20601;-68
2022/04/03 05:06:58;;;;;;;4.63;4.32;;;-1.60;99.90;;;;;;4997026;28;20717;-68
2022/04/03 05:09:27;;;;;;;4.97;4.57;;;-1.50;99.90;;;;;;4996862;28;20317;-68
2022/04/03 05:11:54;;;;;;;5.00;4.70;;;-1.50;99.90;;;;;;4997520;28;20199;-68
2022/04/03 05:14:21;;;;;;;5.53;5.03;;;-1.60;99.90;;;;;;4996705;28;20769;-68
2022/04/03 05:16:48;;;;;;;6.63;5.95;;;-1.50;99.90;;;;;;4996464;28;20700;-68
2022/04/03 05:19:15;;;;;;;6.85;6.20;;;-1.60;99.90;;;;;;4996485;28;20786;-68
2022/04/03 05:21:43;;;;;;;7.80;7.05;;;-1.50;99.90;;;;;;4997063;28;20207;-68
2022/04/03 05:24:09;;;;;;;8.55;7.75;;;-1.50;99.90;;;;;;4997040;28;20202;-69
2022/04/03 05:26:38;;;;;;;8.40;7.60;;;-1.50;99.90;;;;;;4996917;28;20203;-68
2022/04/03 05:29:05;;;;;;;7.97;7.18;;;-1.50;99.90;;;;;;4996742;28;20222;-68
2022/04/03 05:31:32;;;;;;;8.27;7.47;;;-1.50;99.90;;;;;;4996095;28;20745;-68
2022/04/03 05:33:58;;;;;;;7.50;6.80;;;-1.50;99.90;;;;;;4995734;28;20209;-68
2022/04/03 05:36:25;;;;;;;6.28;5.72;;;-1.40;99.90;;;;;;4996684;28;20326;-68
2022/04/03 05:38:52;;;;;;;6.60;6.00;;;-1.40;99.90;;;;;;4996477;28;20222;-68
2022/04/03 05:41:19;;;;;;;7.05;6.35;;;-1.40;99.90;;;;;;4996784;28;20199;-68
2022/04/03 05:43:47;;;;;;;6.93;6.22;;;-1.40;99.90;;;;;;4996471;28;20289;-68
2022/04/03 05:46:14;;;;;;;7.43;6.72;;;-1.40;99.90;;;;;;4996419;28;20565;-68
2022/04/03 05:48:41;;;;;;;6.60;6.10;;;-1.40;99.90;;;;;;4996271;28;20592;-68
2022/04/03 05:51:08;;;;;;;6.85;6.25;;;-1.40;99.90;;;;;;4996846;28;20297;-67
2022/04/03 05:53:34;;;;;;;6.38;5.78;;;-1.40;99.90;;;;;;4999012;28;20227;-67
2022/04/03 05:56:01;;;;;;;5.93;5.32;;;-1.30;99.90;;;;;;5007007;28;20805;-68
2022/04/03 05:58:28;;;;;;;6.53;6.03;;;-1.30;99.90;;;;;;5010287;28;20250;-68
2022/04/03 06:00:56;;;;;;;6.18;5.68;;;-1.30;99.90;;;;;;4997497;28;20245;-68
2022/04/03 06:03:23;;;;;;;7.40;6.68;;;-1.20;99.90;;;;;;4995962;28;20762;-68
2022/04/03 06:05:51;;;;;;;7.00;6.40;;;-1.30;99.90;;;;;;4995842;28;20666;-67
2022/04/03 06:08:18;;;;;;;6.93;6.22;;;-1.30;99.90;;;;;;4996175;28;20226;-67
2022/04/03 06:10:45;;;;;;;6.45;5.95;;;-1.30;99.90;;;;;;4997521;28;20210;-67
2022/04/03 06:13:13;;;;;;;7.18;6.55;;;-1.20;99.90;;;;;;5004424;28;20206;-67
2022/04/03 06:15:43;;;;;;;6.22;5.72;;;-1.20;99.90;;;;;;4996909;28;20219;-67
2022/04/03 06:18:14;;;;;;;6.25;5.75;;;-1.10;99.90;;;;;;4995973;28;20712;-67
2022/04/03 06:20:41;;;;;;;7.10;6.25;;;-1.10;99.90;;;;;;4996180;28;20210;-67
2022/04/03 06:23:12;;;;;;;6.72;6.13;;;-1.10;99.90;;;;;;4996091;28;20206;-67
2022/04/03 06:25:39;;;;;;;7.28;6.57;;;-1.10;99.90;;;;;;4996003;28;20230;-67
2022/04/03 06:28:06;;;;;;;7.53;6.82;;;-1.10;99.90;;;;;;4995877;28;20650;-68
2022/04/03 06:30:34;;;;;;;7.68;6.97;;;-1.10;99.90;;;;;;4995535;28;20714;-67
2022/04/03 06:33:00;;;;;;;7.15;6.55;;;-1.00;99.90;;;;;;4995582;28;20202;-67
2022/04/03 06:35:29;;;;;;;7.15;6.45;;;-0.90;99.90;;;;;;4995604;28;20232;-67
2022/04/03 06:37:56;;;;;;;7.55;6.75;;;-0.80;99.90;;;;;;4995346;28;20229;-68
2022/04/03 06:40:23;;;;;;;6.82;6.13;;;-0.70;99.90;;;;;;4995154;28;20670;-68
2022/04/03 06:42:51;;;;;;;8.52;6.47;;;-0.60;99.90;;;;;;4995225;28;20203;-68
2022/04/03 06:45:18;;;;;;;7.50;6.80;;;-0.60;99.90;;;;;;4995359;28;20207;-68
2022/04/03 06:47:45;;;;;;;7.05;6.40;;;-0.50;99.90;;;;;;4995382;28;20317;-68
2022/04/03 06:50:12;;;;;;;7.07;6.38;;;-0.40;99.90;;;;;;4995321;28;20206;-68
2022/04/03 06:52:41;;;;;;;6.43;5.93;;;-0.30;99.90;;;;;;4995382;28;20199;-68
2022/04/03 06:55:09;;;;;;;6.68;6.07;;;-0.30;99.90;;;;;;4995130;28;20293;-68
2022/04/03 06:57:36;;;;;;;6.68;5.93;;;-0.20;99.90;;;;;;4995445;28;20573;-68
2022/04/03 07:00:05;;;;;;;8.35;7.38;;;0.00;99.90;;;;;;4995062;28;20573;-68
2022/04/03 07:02:32;;;;;;;7.38;6.68;;;0.00;99.90;;;;;;4995361;28;20187;-68
2022/04/03 07:04:59;;;;;;;7.80;7.10;;;0.00;99.90;;;;;;4994844;28;20545;-68
2022/04/03 07:07:27;;;;;;;7.50;6.80;;;0.00;99.90;;;;;;4995304;28;20704;-68
2022/04/03 07:09:55;;;;;;;6.45;5.95;;;0.00;99.90;;;;;;4995497;28;20199;-68
2022/04/03 07:12:22;;;;;;;8.00;7.18;;;0.00;99.90;;;;;;4995356;28;20298;-68
2022/04/03 07:14:50;;;;;;;6.63;6.03;;;0.10;99.90;;;;;;4995096;28;20207;-68
2022/04/03 07:17:17;;;;;;;7.80;7.05;;;0.10;99.90;;;;;;4995032;28;20569;-68
2022/04/03 07:19:45;;;;;;;7.10;6.47;;;0.00;99.90;;;;;;4995524;28;20301;-68
2022/04/03 07:22:12;;;;;;;7.40;6.70;;;0.10;99.90;;;;;;4998701;28;20718;-67
2022/04/03 07:24:39;;;;;;;7.07;6.30;;;0.00;99.90;;;;;;4998549;28;20260;-68
2022/04/03 07:27:08;;;;;;;6.78;6.30;;;-0.10;99.90;;;;;;4999637;28;20207;-69
2022/04/03 07:29:36;;;;;;;7.57;6.55;;;0.00;99.90;;;;;;4998292;28;20214;-67
2022/04/03 07:32:04;;;;;;;7.53;6.60;;;0.00;99.90;;;;;;4998650;28;20209;-67
2022/04/03 07:34:31;;;;;;;8.45;7.65;;;0.00;99.90;;;;;;4999475;28;20199;-67
2022/04/03 07:36:58;;;;;;;9.35;7.80;;;0.00;99.90;;;;;;4999045;28;20618;-67
2022/04/03 07:39:26;;;;;;;8.23;7.43;;;0.30;99.90;;;;;;4994889;28;20598;-67
2022/04/03 07:41:53;;;;;;;8.05;7.25;;;0.90;99.90;;;;;;4994550;28;20206;-68
2022/04/03 07:44:21;;;;;;;7.78;7.13;;;1.20;99.90;;;;;;4994227;28;20513;-68
2022/04/03 07:46:48;;;;;;;8.43;7.72;;;1.50;99.90;;;;;;4994443;28;20206;-68
2022/04/03 07:49:15;;;;;;;7.30;6.63;;;2.00;99.90;;;;;;4994425;28;20219;-68
2022/04/03 07:51:42;;;;;;;6.72;6.13;;;2.30;99.90;;;;;;4994080;28;20221;-69
2022/04/03 07:54:09;;;;;;;7.32;6.60;;;2.30;99.90;;;;;;4994077;28;20674;-68
2022/04/03 07:56:37;;;;;;;7.18;6.57;;;2.30;99.90;;;;;;4993735;28;20236;-69
2022/04/03 07:59:06;;;;;;;7.10;6.53;;;2.30;99.90;;;;;;4994340;28;20312;-67
2022/04/03 08:01:34;;;;;;;5.55;5.15;;;2.50;99.90;;;;;;4994122;28;20693;-68
2022/04/03 08:04:01;;;;;;;5.75;5.38;;;2.90;99.90;;;;;;4994398;28;20206;-68
2022/04/03 08:06:28;;;;;;;6.32;5.93;;;3.50;99.90;;;;;;4994450;28;20209;-68
2022/04/03 08:08:55;;;;;;;6.22;5.78;;;4.10;99.90;;;;;;4994423;28;20702;-67
2022/04/03 08:11:21;;;;;;;4.80;4.50;;;4.10;99.90;;;;;;4994527;28;20199;-67
2022/04/03 08:13:48;;;;;;;4.82;4.53;;;3.80;99.90;;;;;;4994696;28;20305;-67
2022/04/03 08:16:15;;;;;;;5.38;4.97;;;3.50;99.90;;;;;;4995616;28;20289;-68
2022/04/03 08:18:44;;;;;;;6.00;5.50;;;3.10;99.90;;;;;;4994012;28;20234;-66
2022/04/03 08:21:11;;;;;;;6.38;5.78;;;2.50;99.90;;;;;;4994561;28;20290;-68
2022/04/03 08:23:38;;;;;;;5.25;4.85;;;2.10;99.90;;;;;;4994045;28;20214;-69
2022/04/03 08:26:05;;;;;;;5.28;4.88;;;1.90;99.90;;;;;;4994271;28;20198;-68
2022/04/03 08:28:32;;;;;;;5.80;5.32;;;1.80;99.90;;;;;;4994080;28;20329;-68
2022/04/03 08:30:59;;;;;;;5.75;5.28;;;1.80;99.90;;;;;;4993983;28;20207;-67
2022/04/03 08:33:26;;;;;;;5.13;4.80;;;1.90;99.90;;;;;;4993775;28;20202;-67
2022/04/03 08:35:55;;;;;;;5.75;5.35;;;1.80;99.90;;;;;;4993647;28;20230;-67
2022/04/03 08:38:22;;;;;;;5.47;5.10;;;1.50;99.90;;;;;;4994102;28;20589;-67
2022/04/03 08:40:48;;;;;;;5.30;4.80;;;1.40;99.90;;;;;;4993623;28;20757;-67
2022/04/03 08:43:15;;;;;;;6.07;5.57;;;1.20;99.90;;;;;;4994219;28;20293;-68
2022/04/03 08:45:42;;;;;;;5.47;5.18;;;1.10;99.90;;;;;;4993959;28;20298;-69
2022/04/03 08:48:09;;;;;;;5.05;4.65;;;1.00;99.90;;;;;;4993951;28;20214;-68
2022/04/03 08:50:38;;;;;;;5.78;5.28;;;1.00;99.90;;;;;;4994391;28;20209;-68
2022/04/03 08:53:08;;;;;;;4.68;4.38;;;0.90;99.90;;;;;;4993987;28;20270;-69
2022/04/03 08:55:35;;;;;;;5.22;4.88;;;0.80;99.90;;;;;;4994264;28;20285;-68
2022/04/03 08:58:03;;;;;;;5.28;4.88;;;0.70;99.90;;;;;;4993693;28;20265;-68
2022/04/03 09:00:31;;;;;;;4.63;4.22;;;0.60;99.90;;;;;;4993884;28;20206;-68
2022/04/03 09:02:59;;;;;;;5.07;4.47;;;0.60;99.90;;;;;;4993972;28;20202;-67
2022/04/03 09:05:37;;;;;;;4.63;4.43;;;0.70;99.90;;;;;;4993876;28;20671;-67
2022/04/03 09:08:04;;;;;;;4.90;4.45;;;0.80;99.90;;;;;;4996983;28;20222;-67
2022/04/03 09:10:32;;;;;;;4.72;4.38;;;0.90;99.90;;;;;;4997084;28;20676;-68
2022/04/03 09:13:00;;;;;;;4.78;4.38;;;0.90;99.90;;;;;;4997061;28;20210;-68
2022/04/03 09:15:28;;;;;;;5.63;5.10;;;0.90;99.90;;;;;;4997204;28;20198;-68
2022/04/03 09:17:56;;;;;;;5.97;5.53;;;0.80;99.90;;;;;;4997354;28;20226;-69
2022/04/03 09:20:26;;;;;;;5.28;4.88;;;0.70;99.90;;;;;;4998026;28;20245;-69
2022/04/03 09:22:54;;;;;;;6.50;5.90;;;0.70;99.90;;;;;;4997781;28;20290;-69
2022/04/03 09:25:26;;;;;;;5.88;5.38;;;0.60;99.90;;;;;;4997121;28;20226;-68
2022/04/03 09:27:56;;;;;;;5.63;5.13;;;0.60;99.90;;;;;;4999313;28;20223;-67
2022/04/03 09:30:25;;;;;;;5.40;4.97;;;0.60;99.90;;;;;;5002172;28;20298;-68
2022/04/03 09:32:54;;;;;;;5.68;5.18;;;0.60;99.90;;;;;;5006447;28;20213;-67
2022/04/03 09:35:25;;;;;;;6.60;5.13;;;0.60;99.90;;;;;;5002436;28;20234;-67
2022/04/03 09:38:22;;;;;;;6.53;5.82;;;0.60;99.90;;;;;;5002262;28;20227;-68
2022/04/03 09:40:51;;;;;;;6.03;5.45;;;0.50;99.90;;;;;;4997590;28;20197;-69
2022/04/03 09:43:23;;;;;;;7.47;5.53;;;0.50;99.90;;;;;;4997120;28;20213;-68
2022/04/03 09:45:52;;;;;;;6.55;5.88;;;0.60;99.90;;;;;;4996905;28;20206;-67
2022/04/03 09:48:27;;;;;;;6.00;5.50;;;0.80;99.90;;;;;;4996348;28;20307;-67
2022/04/03 09:51:04;;;;;;;5.82;5.32;;;1.00;99.90;;;;;;4996331;28;20189;-68
2022/04/03 09:53:41;;;;;;;5.30;4.90;;;1.20;99.90;;;;;;4996404;28;20186;-68
2022/04/03 09:56:08;;;;;;;6.30;5.63;;;1.30;99.90;;;;;;4996448;28;20187;-68
2022/04/03 09:58:59;;;;;;;5.72;5.22;;;1.40;99.90;;;;;;4996092;28;20223;-67
2022/04/03 10:01:28;;;;;;;5.55;5.10;;;1.50;99.90;;;;;;4993820;28;20300;-68
2022/04/03 10:03:55;;;;;;;5.25;4.85;;;1.70;99.90;;;;;;4996480;28;20202;-68
2022/04/03 10:06:23;;;;;;;5.35;4.95;;;2.00;99.90;;;;;;4996229;28;20213;-68
2022/04/03 10:08:51;;;;;;;5.78;5.28;;;2.00;99.90;;;;;;4995946;28;20701;-68
2022/04/03 10:11:18;;;;;;;5.13;4.82;;;1.90;99.90;;;;;;4996217;28;20210;-68
2022/04/03 10:13:48;;;;;;;6.30;5.70;;;2.00;99.90;;;;;;4996150;28;20202;-68
2022/04/03 10:16:16;;;;;;;4.90;4.53;;;1.80;99.90;;;;;;4996002;28;20203;-68
2022/04/03 10:18:44;;;;;;;5.35;4.95;;;1.70;99.90;;;;;;4995267;28;20227;-68
2022/04/03 10:21:15;;;;;;;5.20;4.80;;;1.70;99.90;;;;;;4996007;28;20199;-68
2022/04/03 10:23:44;;;;;;;5.50;5.00;;;1.50;99.90;;;;;;4995679;28;20191;-67
2022/04/03 10:26:14;;;;;;;5.93;5.50;;;1.40;99.90;;;;;;4995448;28;20213;-68
2022/04/03 10:28:45;;;;;;;5.50;5.10;;;1.30;99.90;;;;;;4995200;28;20223;-68
2022/04/03 10:31:17;;;;;;;6.90;6.25;;;1.20;99.90;;;;;;4996271;28;20538;-68
2022/04/03 10:33:45;;;;;;;7.63;6.78;;;1.10;99.90;;;;;;4995407;28;20631;-68
2022/04/03 10:36:15;;;;;;;6.55;5.60;;;1.00;99.90;;;;;;4995824;28;20206;-68
2022/04/03 10:38:45;;;;;;;6.20;5.60;;;0.90;99.90;;;;;;4995848;28;20230;-68
2022/04/03 10:41:28;;;;;;;6.35;5.70;;;1.00;99.90;;;;;;4995545;28;20635;-68
2022/04/03 10:44:16;;;;;;;6.07;5.57;;;1.10;99.90;;;;;;4995714;28;20229;-68
2022/04/03 10:47:15;;;;;;;7.63;6.72;;;1.10;99.90;;;;;;4995405;28;20245;-67
2022/04/03 10:49:50;;;;;;;7.47;6.10;;;1.20;99.90;;;;;;4995081;28;20574;-68
2022/04/03 10:52:26;;;;;;;6.80;5.65;;;1.20;99.90;;;;;;4995311;28;20286;-67
2022/04/03 10:54:55;;;;;;;6.05;5.55;;;1.30;99.90;;;;;;4995338;28;20193;-67
2022/04/03 10:57:35;;;;;;;5.93;5.43;;;1.30;99.90;;;;;;4995237;28;20340;-67
2022/04/03 11:00:45;;;;;;;6.25;5.65;;;1.10;99.90;;;;;;4996209;28;20206;-66
2022/04/03 11:03:39;;;;;;;6.20;5.60;;;1.00;99.90;;;;;;4995760;28;20277;-67
2022/04/03 11:06:27;;;;;;;10.68;6.78;;;0.80;99.90;;;;;;4960709;28;20202;-67
2022/04/03 11:09:11;;;;;;;6.22;5.65;;;0.70;99.90;;;;;;4996018;28;20222;-67
2022/04/03 11:11:50;;;;;;;6.10;5.50;;;0.50;99.90;;;;;;4995541;28;20278;-67
2022/04/03 11:14:55;;;;;;;6.78;5.80;;;0.40;99.90;;;;;;4994971;28;20274;-67
2022/04/03 11:17:48;;;;;;;6.65;6.00;;;0.30;99.90;;;;;;4995514;28;20211;-70
2022/04/03 11:20:40;;;;;;;6.50;5.90;;;0.20;99.90;;;;;;4995073;28;20214;-68
2022/04/03 11:23:10;;;;;;;7.20;6.50;;;0.20;99.90;;;;;;4994928;28;20209;-68
2022/04/03 11:25:38;;;;;;;7.13;6.22;;;0.20;99.90;;;;;;4995262;28;20194;-68
2022/04/03 11:28:07;;;;;;;6.13;5.55;;;0.30;99.90;;;;;;4994858;28;20215;-68
2022/04/03 11:30:35;;;;;;;6.03;5.32;;;0.40;99.90;;;;;;4993894;28;20202;-68
2022/04/03 11:33:03;;;;;;;6.25;5.68;;;0.50;99.90;;;;;;4994570;28;20758;-68
2022/04/03 11:35:37;;;;;;;6.15;5.55;;;0.60;99.90;;;;;;4994797;28;20213;-68
2022/04/03 11:38:05;;;;;;;6.28;5.20;;;0.70;99.90;;;;;;4994531;28;20622;-68
2022/04/03 11:40:35;;;;;;;6.13;5.53;;;0.90;99.90;;;;;;4994489;28;20574;-68
2022/04/03 11:43:10;;;;;;;6.63;5.97;;;0.90;99.90;;;;;;4994533;28;20191;-67
2022/04/03 11:45:37;;;;;;;9.95;7.25;;;1.00;99.90;;;;;;4994635;28;20202;-67
2022/04/03 11:48:19;;;;;;;7.15;6.32;;;1.10;99.90;;;;;;4994487;28;20225;-67
2022/04/03 11:50:46;;;;;;;6.10;5.38;;;1.20;99.90;;;;;;4994328;28;20271;-67
2022/04/03 11:53:13;;;;;;;5.60;4.93;;;1.20;99.90;;;;;;4994556;28;20289;-68
2022/04/03 11:55:41;;;;;;;4.90;4.50;;;1.30;99.90;;;;;;4994468;28;20206;-68
2022/04/03 11:58:08;;;;;;;4.97;4.57;;;1.50;99.90;;;;;;4994081;28;20226;-68
2022/04/03 12:00:44;;;;;;;5.00;4.60;;;1.50;99.90;;;;;;4994461;28;20205;-68
2022/04/03 12:03:11;;;;;;;4.95;4.55;;;1.50;99.90;;;;;;4994361;28;20194;-69
2022/04/03 12:05:41;;;;;;;4.50;4.10;;;1.40;99.90;;;;;;4994577;28;20209;-69
2022/04/03 12:08:08;;;;;;;5.10;4.65;;;1.30;99.90;;;;;;4994610;28;20219;-69
2022/04/03 12:10:35;;;;;;;4.68;4.30;;;1.20;99.90;;;;;;4994607;28;20205;-69
2022/04/03 12:13:05;;;;;;;4.40;4.10;;;1.20;99.90;;;;;;4994218;28;20286;-69
2022/04/03 12:15:34;;;;;;;4.30;3.88;;;1.30;99.90;;;;;;4994156;28;20678;-69
2022/04/03 12:18:03;;;;;;;4.38;4.07;;;1.40;99.90;;;;;;4994274;28;20589;-70
2022/04/03 12:20:35;;;;;;;4.35;4.05;;;1.50;99.90;;;;;;4993992;28;20248;-70
2022/04/03 12:23:01;;;;;;;4.03;3.72;;;1.50;99.90;;;;;;4994417;28;20191;-70
2022/04/03 12:25:31;;;;;;;4.43;4.10;;;1.60;99.90;;;;;;4993697;28;20298;-70
2022/04/03 12:27:58;;;;;;;4.40;4.10;;;1.60;99.90;;;;;;4994078;28;20314;-69
2022/04/03 12:30:31;;;;;;;4.35;4.05;;;1.80;99.90;;;;;;4994171;28;20682;-68
2022/04/03 12:32:58;;;;;;;5.20;4.70;;;1.80;99.90;;;;;;4994024;28;20222;-68
2022/04/03 12:35:26;;;;;;;4.15;3.95;;;1.90;99.90;;;;;;4994045;28;20210;-68
2022/04/03 12:37:54;;;;;;;4.05;3.67;;;2.00;99.90;;;;;;4993767;28;20227;-68
2022/04/03 12:40:22;;;;;;;3.72;3.53;;;2.10;99.90;;;;;;4994579;28;20257;-68
2022/04/03 12:42:49;;;;;;;5.05;4.65;;;2.10;99.90;;;;;;4996562;28;20206;-68
2022/04/03 12:45:17;;;;;;;4.25;3.85;;;1.90;99.90;;;;;;4997804;28;20273;-68
2022/04/03 12:47:47;;;;;;;4.05;3.75;;;1.90;99.90;;;;;;4997320;28;20218;-68
2022/04/03 12:50:21;;;;;;;3.78;3.58;;;2.00;99.90;;;;;;4997759;28;20199;-68
2022/04/03 12:52:54;;;;;;;2.90;2.75;;;2.10;99.90;;;;;;4997299;28;20289;-68
2022/04/03 12:55:51;;;;;;;3.35;3.05;;;2.30;99.90;;;;;;4997601;28;20206;-68
2022/04/03 12:58:25;;;;;;;3.63;3.42;;;2.40;99.90;;;;;;4998874;28;20698;-68
2022/04/03 13:00:55;;;;;;;5.85;4.15;;;2.50;99.90;;;;;;5003507;28;20191;-67